createdAt,value
2023-04-15T00:01:37.283Z,99.90
2023-04-15T00:04:04.900Z,99.90
2023-04-15T00:06:31.868Z,99.90
2023-04-15T00:09:00.283Z,99.90
2023-04-15T00:11:27.272Z,99.90
2023-04-15T00:13:54.467Z,99.90
2023-04-15T00:16:21.477Z,99.90
2023-04-15T00:18:48.337Z,99.90
2023-04-15T00:21:15.190Z,99.90
2023-04-15T00:23:41.987Z,99.90
2023-04-15T00:26:08.742Z,99.90
2023-04-15T00:28:35.547Z,99.90
2023-04-15T00:31:02.431Z,99.90
2023-04-15T00:33:29.222Z,99.90
2023-04-15T00:35:55.968Z,99.90
2023-04-15T00:38:22.795Z,99.90
2023-04-15T00:40:49.557Z,99.90
2023-04-15T00:43:16.555Z,99.90
2023-04-15T00:45:43.528Z,99.90
2023-04-15T00:48:10.421Z,99.90
2023-04-15T00:50:37.233Z,99.90
2023-04-15T00:53:04.005Z,99.90
2023-04-15T00:55:30.758Z,99.90
2023-04-15T00:57:57.806Z,99.90
2023-04-15T01:00:24.604Z,99.90
2023-04-15T01:02:51.671Z,99.90
2023-04-15T01:05:19.541Z,99.90
2023-04-15T01:07:47.871Z,99.90
2023-04-15T01:10:14.736Z,99.90
2023-04-15T01:12:42.131Z,99.90
2023-04-15T01:15:11.064Z,99.90
2023-04-15T01:17:38.185Z,99.90
2023-04-15T01:20:05.997Z,99.90
2023-04-15T01:22:33.390Z,99.90
2023-04-15T01:25:04.790Z,99.90
2023-04-15T01:27:32.257Z,99.90
2023-04-15T01:29:59.034Z,99.90
2023-04-15T01:32:25.859Z,99.90
2023-04-15T01:34:52.631Z,99.90
2023-04-15T01:37:19.443Z,99.90
2023-04-15T01:39:46.374Z,99.90
2023-04-15T01:42:13.217Z,99.90
2023-04-15T01:44:40.452Z,99.90
2023-04-15T01:47:07.244Z,99.90
2023-04-15T01:49:34.220Z,99.90
2023-04-15T01:52:00.972Z,99.90
2023-04-15T01:54:27.812Z,99.90
2023-04-15T01:56:54.573Z,99.90
2023-04-15T01:59:21.293Z,99.90
2023-04-15T02:01:48.098Z,99.90
2023-04-15T02:04:16.911Z,99.90
2023-04-15T02:06:44.079Z,99.90
2023-04-15T02:09:11.043Z,99.90
2023-04-15T02:11:37.876Z,99.90
2023-04-15T02:14:05.782Z,99.90
2023-04-15T02:16:32.797Z,99.90
2023-04-15T02:19:00.695Z,99.90
2023-04-15T02:21:27.845Z,99.90
2023-04-15T02:23:54.627Z,99.90
2023-04-15T02:26:22.423Z,99.90
2023-04-15T02:28:51.391Z,99.90
2023-04-15T02:31:18.355Z,99.90
2023-04-15T02:33:45.374Z,99.90
2023-04-15T02:36:12.468Z,99.90
2023-04-15T02:38:41.356Z,99.90
2023-04-15T02:41:11.841Z,99.90
2023-04-15T02:43:39.992Z,99.90
2023-04-15T02:46:07.170Z,99.90
2023-04-15T02:48:34.386Z,99.90
2023-04-15T02:51:21.385Z,99.90
2023-04-15T02:53:48.992Z,99.90
2023-04-15T02:56:17.215Z,99.90
2023-04-15T02:58:44.999Z,99.90
2023-04-15T03:01:12.160Z,99.90
2023-04-15T03:03:39.126Z,99.90
2023-04-15T03:06:06.685Z,99.90
2023-04-15T03:08:33.517Z,99.90
2023-04-15T03:11:00.955Z,99.90
2023-04-15T03:13:27.759Z,99.90
2023-04-15T03:15:54.639Z,99.90
2023-04-15T03:18:21.717Z,99.90
2023-04-15T03:20:48.485Z,99.90
2023-04-15T03:23:15.520Z,99.90
2023-04-15T03:25:42.385Z,99.90
2023-04-15T03:28:09.152Z,99.90
2023-04-15T03:30:36.057Z,99.90
2023-04-15T03:33:02.881Z,99.90
2023-04-15T03:35:29.783Z,99.90
2023-04-15T03:37:56.599Z,99.90
2023-04-15T03:40:23.387Z,99.90
2023-04-15T03:42:50.150Z,99.90
2023-04-15T03:45:17.062Z,99.90
2023-04-15T03:47:43.988Z,99.90
2023-04-15T03:50:11.169Z,99.90
2023-04-15T03:52:38.153Z,99.90
2023-04-15T03:55:05.351Z,99.90
2023-04-15T03:57:32.130Z,99.90
2023-04-15T03:59:58.940Z,99.90
2023-04-15T04:02:26.035Z,99.90
2023-04-15T04:04:53.006Z,99.90
2023-04-15T04:07:19.915Z,99.90
2023-04-15T04:09:47.410Z,99.90
2023-04-15T04:12:14.459Z,99.90
2023-04-15T04:14:41.243Z,99.90
2023-04-15T04:17:08.310Z,99.90
2023-04-15T04:19:35.229Z,99.90
2023-04-15T04:22:02.239Z,99.90
2023-04-15T04:24:28.973Z,99.90
2023-04-15T04:26:57.282Z,99.90
2023-04-15T04:29:24.306Z,99.90
2023-04-15T04:31:51.266Z,99.90
2023-04-15T04:34:18.135Z,99.90
2023-04-15T04:36:44.933Z,99.90
2023-04-15T04:39:11.841Z,99.90
2023-04-15T04:41:38.640Z,99.90
2023-04-15T04:44:05.469Z,99.90
2023-04-15T04:46:32.226Z,99.90
2023-04-15T04:48:59.023Z,99.90
2023-04-15T04:51:26.373Z,99.90
2023-04-15T04:53:53.178Z,99.90
2023-04-15T04:56:20.019Z,99.90
2023-04-15T04:58:46.898Z,99.90
2023-04-15T05:01:13.793Z,99.90
2023-04-15T05:03:40.706Z,99.90
2023-04-15T05:06:08.818Z,99.90
2023-04-15T05:08:36.123Z,99.90
2023-04-15T05:11:03.539Z,99.90
2023-04-15T05:13:30.338Z,99.90
2023-04-15T05:15:57.269Z,99.90
2023-04-15T05:18:24.300Z,99.90
2023-04-15T05:20:51.128Z,99.90
2023-04-15T05:23:17.873Z,99.90
2023-04-15T05:25:45.152Z,99.90
2023-04-15T05:28:12.556Z,99.90
2023-04-15T05:30:39.825Z,99.90
2023-04-15T05:33:06.587Z,99.90
2023-04-15T05:35:33.402Z,99.90
2023-04-15T05:38:00.596Z,99.90
2023-04-15T05:40:28.052Z,99.90
2023-04-15T05:42:54.902Z,99.90
2023-04-15T05:45:21.714Z,99.90
2023-04-15T05:47:51.004Z,99.90
2023-04-15T05:50:17.919Z,99.90
2023-04-15T05:52:45.905Z,99.90
2023-04-15T05:55:12.776Z,99.90
2023-04-15T05:57:39.575Z,99.90
2023-04-15T06:00:07.048Z,97.40
2023-04-15T06:02:33.972Z,95.90
2023-04-15T06:05:01.400Z,94.10
2023-04-15T06:07:28.294Z,92.90
2023-04-15T06:09:55.188Z,91.90
2023-04-15T06:12:22.045Z,92.50
2023-04-15T06:14:48.882Z,92.50
2023-04-15T06:17:18.539Z,93.30
2023-04-15T06:19:45.448Z,93.30
2023-04-15T06:22:12.249Z,92.70
2023-04-15T06:24:39.008Z,91.10
2023-04-15T06:27:05.898Z,90.00
2023-04-15T06:29:32.741Z,89.50
2023-04-15T06:31:59.614Z,88.90
2023-04-15T06:34:26.460Z,89.10
2023-04-15T06:36:54.664Z,89.80
2023-04-15T06:39:21.419Z,89.20
2023-04-15T06:41:48.216Z,90.00
2023-04-15T06:44:15.109Z,90.30
2023-04-15T06:46:42.038Z,90.10
2023-04-15T06:49:08.831Z,90.00
2023-04-15T06:51:36.298Z,89.70
2023-04-15T06:54:05.961Z,90.10
2023-04-15T06:56:33.626Z,88.60
2023-04-15T06:59:00.905Z,88.70
2023-04-15T07:01:27.856Z,88.30
2023-04-15T07:03:54.844Z,88.60
2023-04-15T07:06:22.240Z,86.10
2023-04-15T07:08:48.973Z,83.60
2023-04-15T07:11:15.859Z,84.10
2023-04-15T07:13:42.667Z,81.90
2023-04-15T07:16:09.477Z,76.90
2023-04-15T07:18:36.334Z,74.50
2023-04-15T07:21:03.251Z,73.50
2023-04-15T07:23:29.975Z,66.40
2023-04-15T07:25:57.430Z,65.80
2023-04-15T07:28:24.311Z,61.40
2023-04-15T07:30:51.215Z,60.70
2023-04-15T07:33:18.055Z,57.50
2023-04-15T07:35:45.371Z,58.80
2023-04-15T07:38:15.065Z,59.30
2023-04-15T07:40:42.424Z,60.40
2023-04-15T07:43:09.901Z,60.50
2023-04-15T07:45:36.738Z,57.50
2023-04-15T07:48:03.883Z,56.10
2023-04-15T07:50:30.823Z,55.90
2023-04-15T07:52:57.710Z,54.30
2023-04-15T07:55:25.359Z,53.70
2023-04-15T07:57:52.970Z,54.60
2023-04-15T08:00:20.169Z,50.00
2023-04-15T08:02:48.500Z,48.80
2023-04-15T08:05:15.905Z,47.40
2023-04-15T08:07:42.651Z,48.30
2023-04-15T08:10:10.089Z,49.90
2023-04-15T08:12:37.254Z,50.80
2023-04-15T08:15:04.502Z,53.40
2023-04-15T08:17:31.432Z,51.00
2023-04-15T08:19:58.257Z,48.20
2023-04-15T08:22:25.412Z,45.20
2023-04-15T08:24:52.204Z,43.10
2023-04-15T08:27:19.748Z,41.20
2023-04-15T08:29:47.230Z,42.40
2023-04-15T08:32:14.097Z,40.60
2023-04-15T08:34:40.962Z,39.50
2023-04-15T08:37:08.256Z,40.30
2023-04-15T08:39:35.232Z,38.70
2023-04-15T08:42:03.566Z,38.90
2023-04-15T08:44:32.085Z,39.70
2023-04-15T08:47:01.380Z,41.60
2023-04-15T08:49:28.654Z,41.60
2023-04-15T08:51:56.750Z,39.50
2023-04-15T08:54:23.608Z,36.70
2023-04-15T08:56:50.445Z,34.80
2023-04-15T08:59:18.016Z,35.20
2023-04-15T09:01:44.823Z,36.10
2023-04-15T09:04:12.616Z,38.00
2023-04-15T09:06:40.184Z,39.50
2023-04-15T09:09:06.915Z,40.60
2023-04-15T09:11:33.800Z,41.90
2023-04-15T09:14:00.523Z,41.60
2023-04-15T09:16:27.556Z,39.40
2023-04-15T09:18:54.496Z,40.80
2023-04-15T09:21:21.392Z,39.40
2023-04-15T09:23:59.132Z,37.40
2023-04-15T09:26:36.285Z,37.50
2023-04-15T09:29:15.121Z,36.40
2023-04-15T09:31:42.580Z,36.00
2023-04-15T09:34:09.362Z,36.60
2023-04-15T09:36:50.943Z,36.90
2023-04-15T09:39:18.069Z,37.70
2023-04-15T09:41:45.181Z,37.60
2023-04-15T09:44:24.757Z,38.40
2023-04-15T09:46:51.537Z,40.30
2023-04-15T09:49:18.488Z,40.20
2023-04-15T09:51:57.649Z,38.20
2023-04-15T09:54:37.972Z,37.40
2023-04-15T09:57:12.273Z,34.70
2023-04-15T09:59:39.063Z,34.40
2023-04-15T10:02:08.725Z,33.60
2023-04-15T10:04:37.112Z,32.70
2023-04-15T10:07:05.312Z,31.60
2023-04-15T10:09:33.575Z,33.60
2023-04-15T10:12:01.280Z,34.60
2023-04-15T10:14:29.320Z,33.80
2023-04-15T10:16:56.478Z,34.80
2023-04-15T10:19:23.379Z,34.70
2023-04-15T10:21:50.285Z,34.50
2023-04-15T10:24:16.948Z,34.20
2023-04-15T10:26:43.901Z,34.90
2023-04-15T10:29:10.725Z,34.70
2023-04-15T10:31:38.451Z,35.30
2023-04-15T10:34:06.618Z,36.50
2023-04-15T10:36:33.931Z,34.80
2023-04-15T10:39:01.419Z,36.10
2023-04-15T10:41:31.337Z,36.70
2023-04-15T10:44:05.035Z,37.10
2023-04-15T10:46:38.680Z,37.10
2023-04-15T10:49:16.359Z,37.50
2023-04-15T10:51:44.820Z,38.30
2023-04-15T10:54:24.259Z,38.10
2023-04-15T10:57:06.648Z,39.80
2023-04-15T10:59:36.208Z,38.50
2023-04-15T11:02:07.360Z,38.70
2023-04-15T11:05:07.404Z,38.40
2023-04-15T11:07:55.742Z,37.80
2023-04-15T11:10:26.015Z,36.90
2023-04-15T11:12:54.216Z,37.60
2023-04-15T11:15:33.979Z,36.10
2023-04-15T11:18:09.939Z,35.60
2023-04-15T11:20:37.242Z,36.80
2023-04-15T11:23:14.730Z,38.00
2023-04-15T11:25:43.307Z,38.60
2023-04-15T11:28:10.997Z,39.00
2023-04-15T11:30:38.055Z,38.80
2023-04-15T11:33:09.375Z,38.30
2023-04-15T11:35:36.387Z,38.70
2023-04-15T11:38:04.217Z,38.60
2023-04-15T11:40:31.557Z,38.00
2023-04-15T11:43:24.399Z,37.70
2023-04-15T11:45:56.455Z,37.30
2023-04-15T11:48:27.527Z,37.10
2023-04-15T11:50:55.543Z,36.30
2023-04-15T11:53:22.679Z,35.30
2023-04-15T11:55:53.526Z,36.90
2023-04-15T11:58:22.455Z,37.10
2023-04-15T12:00:58.894Z,37.90
2023-04-15T12:03:30.528Z,37.40
2023-04-15T12:06:21.319Z,36.10
2023-04-15T12:09:06.420Z,36.30
2023-04-15T12:11:38.326Z,36.40
2023-04-15T12:14:16.930Z,37.10
2023-04-15T12:16:48.719Z,38.30
2023-04-15T12:19:41.873Z,39.90
2023-04-15T12:22:15.286Z,40.40
2023-04-15T12:24:44.306Z,40.10
2023-04-15T12:27:15.173Z,38.70
2023-04-15T12:29:43.206Z,39.10
2023-04-15T12:32:14.163Z,40.30
2023-04-15T12:34:50.209Z,40.50
2023-04-15T12:37:17.231Z,40.20
2023-04-15T12:39:45.263Z,41.40
2023-04-15T12:42:12.175Z,40.80
2023-04-15T12:44:39.273Z,35.30
2023-04-15T12:47:06.629Z,34.50
2023-04-15T12:49:33.661Z,35.80
2023-04-15T12:52:01.311Z,35.40
2023-04-15T12:54:28.919Z,36.50
2023-04-15T12:56:55.859Z,35.10
2023-04-15T12:59:24.392Z,35.20
2023-04-15T13:01:52.385Z,35.40
2023-04-15T13:04:19.734Z,34.80
2023-04-15T13:06:46.544Z,34.80
2023-04-15T13:09:13.347Z,34.10
2023-04-15T13:11:40.116Z,33.50
2023-04-15T13:14:08.219Z,33.20
2023-04-15T13:16:35.175Z,34.20
2023-04-15T13:19:02.547Z,33.60
2023-04-15T13:21:29.381Z,34.30
2023-04-15T13:23:56.230Z,33.80
2023-04-15T13:26:23.214Z,34.20
2023-04-15T13:28:50.049Z,33.80
2023-04-15T13:31:17.142Z,34.40
2023-04-15T13:33:43.942Z,34.40
2023-04-15T13:36:10.878Z,34.50
2023-04-15T13:38:37.640Z,35.50
2023-04-15T13:41:04.455Z,34.60
2023-04-15T13:43:33.710Z,34.20
2023-04-15T13:46:00.637Z,34.70
2023-04-15T13:48:28.177Z,34.10
2023-04-15T13:50:55.029Z,34.10
2023-04-15T13:53:21.772Z,34.70
2023-04-15T13:56:02.926Z,33.80
2023-04-15T13:58:29.791Z,34.30
2023-04-15T14:00:56.846Z,35.10
2023-04-15T14:03:23.757Z,34.40
2023-04-15T14:05:55.885Z,35.40
2023-04-15T14:08:23.182Z,35.40
2023-04-15T14:10:50.096Z,35.80
2023-04-15T14:13:16.952Z,36.40
2023-04-15T14:15:43.747Z,36.40
2023-04-15T14:18:10.549Z,36.10
2023-04-15T14:20:37.371Z,36.50
2023-04-15T14:23:04.160Z,37.10
2023-04-15T14:25:34.046Z,37.20
2023-04-15T14:28:01.563Z,37.30
2023-04-15T14:30:28.398Z,37.40
2023-04-15T14:32:55.336Z,37.00
2023-04-15T14:35:22.128Z,36.70
2023-04-15T14:37:48.901Z,36.30
2023-04-15T14:40:15.684Z,36.80
2023-04-15T14:42:42.491Z,36.20
2023-04-15T14:45:10.050Z,36.90
2023-04-15T14:47:36.925Z,36.40
2023-04-15T14:50:04.123Z,37.00
2023-04-15T14:52:32.989Z,38.10
2023-04-15T14:54:59.890Z,36.70
2023-04-15T14:57:26.658Z,37.30
2023-04-15T14:59:56.602Z,36.80
2023-04-15T15:02:37.221Z,36.80
2023-04-15T15:05:06.207Z,37.30
2023-04-15T15:07:33.187Z,37.20
2023-04-15T15:09:59.961Z,37.10
2023-04-15T15:12:26.789Z,37.40
2023-04-15T15:14:54.675Z,38.00
2023-04-15T15:17:21.756Z,37.90
2023-04-15T15:19:48.724Z,37.90
2023-04-15T15:22:15.685Z,37.60
2023-04-15T15:24:42.459Z,38.10
2023-04-15T15:27:09.607Z,38.10
2023-04-15T15:29:37.443Z,37.60
2023-04-15T15:32:04.271Z,38.40
2023-04-15T15:34:31.032Z,37.70
2023-04-15T15:36:57.935Z,38.10
2023-04-15T15:39:24.711Z,37.50
2023-04-15T15:41:51.486Z,38.20
2023-04-15T15:44:18.304Z,38.00
2023-04-15T15:46:45.238Z,38.00
2023-04-15T15:49:11.999Z,38.20
2023-04-15T15:51:38.846Z,38.50
2023-04-15T15:54:05.948Z,38.50
2023-04-15T15:56:33.260Z,38.20
2023-04-15T15:59:00.074Z,38.20
2023-04-15T16:01:26.913Z,38.40
2023-04-15T16:03:53.971Z,38.60
2023-04-15T16:06:21.140Z,38.70
2023-04-15T16:08:47.919Z,38.10
2023-04-15T16:11:14.864Z,38.70
2023-04-15T16:13:41.798Z,39.00
2023-04-15T16:16:08.674Z,38.90
2023-04-15T16:18:35.583Z,38.70
2023-04-15T16:21:02.409Z,39.00
2023-04-15T16:23:29.235Z,38.60
2023-04-15T16:25:56.145Z,38.10
2023-04-15T16:28:26.897Z,38.20
2023-04-15T16:30:54.319Z,39.70
2023-04-15T16:33:21.118Z,40.10
2023-04-15T16:35:47.905Z,40.40
2023-04-15T16:38:14.702Z,40.00
2023-04-15T16:40:41.559Z,40.00
2023-04-15T16:43:11.153Z,40.60
2023-04-15T16:45:38.183Z,40.80
2023-04-15T16:48:05.193Z,40.60
2023-04-15T16:50:32.061Z,40.90
2023-04-15T16:52:58.800Z,41.10
2023-04-15T16:55:25.722Z,41.40
2023-04-15T16:58:02.305Z,41.50
2023-04-15T17:00:31.200Z,41.90
2023-04-15T17:02:58.881Z,44.00
2023-04-15T17:05:27.734Z,45.20
2023-04-15T17:07:55.026Z,47.00
2023-04-15T17:10:21.974Z,49.50
2023-04-15T17:12:49.763Z,50.80
2023-04-15T17:15:16.629Z,51.70
2023-04-15T17:17:43.511Z,52.80
2023-04-15T17:20:11.215Z,53.50
2023-04-15T17:22:38.180Z,54.30
2023-04-15T17:25:05.414Z,55.10
2023-04-15T17:27:32.243Z,55.60
2023-04-15T17:29:59.053Z,56.30
2023-04-15T17:32:31.751Z,57.10
2023-04-15T17:34:58.810Z,57.90
2023-04-15T17:37:25.689Z,57.70
2023-04-15T17:39:52.713Z,58.20
2023-04-15T17:42:19.618Z,59.30
2023-04-15T17:44:46.380Z,59.20
2023-04-15T17:47:13.220Z,59.40
2023-04-15T17:49:40.041Z,59.00
2023-04-15T17:52:06.841Z,59.60
2023-04-15T17:54:33.999Z,59.70
2023-04-15T17:57:01.382Z,60.70
2023-04-15T17:59:28.195Z,61.10
2023-04-15T18:01:55.546Z,58.10
2023-04-15T18:04:25.827Z,57.60
2023-04-15T18:06:53.272Z,56.60
2023-04-15T18:09:20.348Z,57.40
2023-04-15T18:11:48.387Z,59.70
2023-04-15T18:14:26.644Z,58.70
2023-04-15T18:17:00.627Z,58.80
2023-04-15T18:19:27.826Z,58.80
2023-04-15T18:21:54.621Z,59.20
2023-04-15T18:24:22.145Z,60.30
2023-04-15T18:26:49.291Z,60.60
2023-04-15T18:29:16.405Z,59.90
2023-04-15T18:31:43.405Z,57.50
2023-04-15T18:34:10.272Z,55.10
2023-04-15T18:36:37.121Z,53.70
2023-04-15T18:39:04.451Z,51.60
2023-04-15T18:41:31.389Z,51.50
2023-04-15T18:43:58.164Z,52.40
2023-04-15T18:46:24.975Z,52.60
2023-04-15T18:48:51.746Z,53.80
2023-04-15T18:51:18.574Z,53.40
2023-04-15T18:53:45.629Z,56.50
2023-04-15T18:56:12.378Z,57.40
2023-04-15T18:59:18.426Z,59.00
2023-04-15T19:01:26.414Z,53.90
2023-04-15T19:03:53.333Z,52.60
2023-04-15T19:06:20.315Z,50.80
2023-04-15T19:08:47.417Z,51.20
2023-04-15T19:11:14.262Z,52.20
2023-04-15T19:13:41.082Z,52.40
2023-04-15T19:16:08.044Z,51.80
2023-04-15T19:18:34.867Z,52.10
2023-04-15T19:21:01.640Z,53.10
2023-04-15T19:23:28.513Z,54.50
2023-04-15T19:25:55.490Z,55.90
2023-04-15T19:28:22.280Z,56.80
2023-04-15T19:30:49.115Z,58.20
2023-04-15T19:33:16.031Z,58.40
2023-04-15T19:35:43.080Z,58.90
2023-04-15T19:38:09.896Z,59.90
2023-04-15T19:40:36.708Z,60.60
2023-04-15T19:43:03.624Z,61.10
2023-04-15T19:45:31.413Z,61.40
2023-04-15T19:47:58.246Z,62.10
2023-04-15T19:50:26.426Z,62.80
2023-04-15T19:52:53.711Z,63.50
2023-04-15T19:55:20.507Z,63.50
2023-04-15T19:57:47.547Z,63.90
2023-04-15T20:00:14.451Z,62.80
2023-04-15T20:02:41.365Z,63.90
2023-04-15T20:05:09.964Z,64.50
2023-04-15T20:07:36.966Z,64.60
2023-04-15T20:10:12.088Z,64.50
2023-04-15T20:12:51.087Z,65.00
2023-04-15T20:15:19.849Z,65.40
2023-04-15T20:17:46.740Z,65.50
2023-04-15T20:20:13.584Z,65.30
2023-04-15T20:22:41.052Z,65.30
2023-04-15T20:25:08.152Z,64.40
2023-04-15T20:27:35.072Z,64.40
2023-04-15T20:30:03.368Z,64.10
2023-04-15T20:32:32.744Z,65.20
2023-04-15T20:34:59.598Z,64.40
2023-04-15T20:37:26.349Z,63.70
2023-04-15T20:39:53.374Z,64.80
2023-04-15T20:42:20.275Z,66.10
2023-04-15T20:44:47.120Z,66.20
2023-04-15T20:47:14.004Z,67.40
2023-04-15T20:49:40.772Z,68.10
2023-04-15T20:52:07.909Z,68.70
2023-04-15T20:54:34.744Z,71.10
2023-04-15T20:57:01.774Z,72.60
2023-04-15T20:59:28.609Z,73.80
2023-04-15T21:01:57.108Z,74.40
2023-04-15T21:04:24.683Z,74.70
2023-04-15T21:06:52.340Z,75.60
2023-04-15T21:09:19.217Z,76.90
2023-04-15T21:12:00.571Z,77.60
2023-04-15T21:14:28.224Z,78.00
2023-04-15T21:16:55.356Z,80.40
2023-04-15T21:19:22.082Z,82.70
2023-04-15T21:21:48.828Z,84.80
2023-04-15T21:24:15.694Z,88.20
2023-04-15T21:26:42.566Z,90.80
2023-04-15T21:29:11.458Z,91.80
2023-04-15T21:31:38.763Z,93.40
2023-04-15T21:34:05.759Z,94.30
2023-04-15T21:36:32.605Z,95.20
2023-04-15T21:38:59.527Z,95.90
2023-04-15T21:41:26.725Z,97.70
2023-04-15T21:43:53.714Z,98.20
2023-04-15T21:46:23.469Z,98.80
2023-04-15T21:48:53.172Z,99.90
2023-04-15T21:51:20.030Z,99.90
2023-04-15T21:53:46.738Z,99.90
2023-04-15T21:56:13.514Z,99.90
2023-04-15T21:58:40.447Z,99.90
2023-04-15T22:01:07.209Z,99.90
2023-04-15T22:03:34.644Z,99.90
2023-04-15T22:06:04.622Z,99.90
2023-04-15T22:08:38.752Z,99.90
2023-04-15T22:11:20.982Z,99.90
2023-04-15T22:13:47.773Z,99.90
2023-04-15T22:16:14.646Z,99.90
2023-04-15T22:18:41.501Z,99.90
2023-04-15T22:21:08.523Z,99.90
2023-04-15T22:23:35.311Z,99.90
2023-04-15T22:26:02.195Z,99.90
2023-04-15T22:28:29.038Z,99.90
2023-04-15T22:30:57.923Z,99.90
2023-04-15T22:33:24.747Z,99.90
2023-04-15T22:35:51.552Z,99.90
2023-04-15T22:38:18.330Z,99.90
2023-04-15T22:40:46.387Z,99.90
2023-04-15T22:43:13.184Z,99.90
2023-04-15T22:45:39.934Z,99.90
2023-04-15T22:48:06.817Z,99.90
2023-04-15T22:50:33.668Z,99.90
2023-04-15T22:53:00.601Z,99.90
2023-04-15T22:55:27.499Z,99.90
2023-04-15T22:57:54.353Z,99.90
2023-04-15T23:00:21.150Z,99.90
2023-04-15T23:02:47.955Z,99.90
2023-04-15T23:05:14.843Z,99.90
2023-04-15T23:07:41.738Z,99.90
2023-04-15T23:10:09.089Z,99.90
2023-04-15T23:12:36.031Z,99.90
2023-04-15T23:15:03.621Z,99.90
2023-04-15T23:17:30.489Z,99.90
2023-04-15T23:19:57.332Z,99.90
2023-04-15T23:22:24.151Z,99.90
2023-04-15T23:24:51.139Z,99.90
2023-04-15T23:27:19.080Z,99.90
2023-04-15T23:29:46.102Z,99.90
2023-04-15T23:32:12.920Z,99.90
2023-04-15T23:34:39.619Z,99.90
2023-04-15T23:37:06.385Z,99.90
2023-04-15T23:39:33.213Z,99.90
2023-04-15T23:41:59.972Z,99.90
2023-04-15T23:44:27.058Z,99.90
2023-04-15T23:46:53.882Z,99.90
2023-04-15T23:49:20.784Z,99.90
2023-04-15T23:51:47.541Z,99.90
2023-04-15T23:54:14.899Z,99.90
2023-04-15T23:56:41.720Z,99.90
2023-04-15T23:59:08.998Z,99.90
